createdAt,value
2023-04-09T00:02:07.154Z,53.20
2023-04-09T00:04:35.400Z,52.40
2023-04-09T00:07:03.724Z,52.80
2023-04-09T00:09:32.063Z,52.10
2023-04-09T00:12:00.334Z,52.30
2023-04-09T00:14:29.869Z,53.40
2023-04-09T00:16:57.970Z,53.20
2023-04-09T00:19:26.115Z,52.80
2023-04-09T00:21:54.194Z,53.40
2023-04-09T00:24:22.277Z,53.20
2023-04-09T00:26:50.379Z,52.30
2023-04-09T00:29:18.695Z,52.60
2023-04-09T00:31:48.129Z,52.00
2023-04-09T00:34:16.529Z,52.60
2023-04-09T00:36:44.691Z,53.20
2023-04-09T00:39:12.730Z,55.00
2023-04-09T00:41:40.816Z,55.10
2023-04-09T00:44:08.907Z,53.20
2023-04-09T00:46:37.054Z,52.20
2023-04-09T00:49:07.200Z,50.90
2023-04-09T00:51:35.924Z,50.20
2023-04-09T00:54:03.992Z,51.30
2023-04-09T00:56:32.446Z,52.00
2023-04-09T00:59:00.940Z,52.50
2023-04-09T01:01:29.107Z,52.20
2023-04-09T01:03:58.079Z,50.80
2023-04-09T01:06:34.306Z,49.00
2023-04-09T01:09:11.097Z,49.30
2023-04-09T01:11:44.717Z,47.70
2023-04-09T01:14:21.539Z,47.50
2023-04-09T01:16:54.335Z,48.20
2023-04-09T01:19:37.041Z,49.50
2023-04-09T01:22:10.696Z,50.00
2023-04-09T01:24:48.624Z,50.10
2023-04-09T01:27:17.038Z,49.80
2023-04-09T01:29:48.922Z,49.10
2023-04-09T01:32:19.817Z,50.00
2023-04-09T01:34:49.383Z,50.30
2023-04-09T01:37:18.251Z,51.20
2023-04-09T01:39:47.212Z,51.90
2023-04-09T01:42:17.787Z,52.90
2023-04-09T01:44:48.841Z,53.80
2023-04-09T01:47:17.283Z,54.70
2023-04-09T01:49:45.797Z,55.60
2023-04-09T01:52:14.247Z,55.50
2023-04-09T01:54:43.881Z,56.00
2023-04-09T01:57:11.917Z,55.10
2023-04-09T01:59:39.954Z,54.20
2023-04-09T02:02:14.387Z,55.00
2023-04-09T02:04:46.554Z,54.50
2023-04-09T02:07:20.500Z,53.00
2023-04-09T02:09:50.503Z,52.00
2023-04-09T02:12:19.923Z,50.70
2023-04-09T02:14:49.470Z,51.50
2023-04-09T02:17:19.455Z,51.30
2023-04-09T02:19:48.764Z,50.60
2023-04-09T02:22:18.206Z,51.40
2023-04-09T02:24:47.951Z,51.10
2023-04-09T02:27:16.249Z,50.80
2023-04-09T02:29:44.718Z,53.10
2023-04-09T02:32:12.804Z,53.80
2023-04-09T02:34:42.446Z,55.80
2023-04-09T02:37:10.726Z,53.70
2023-04-09T02:39:38.808Z,54.80
2023-04-09T02:42:07.816Z,55.00
2023-04-09T02:44:35.954Z,55.10
2023-04-09T02:47:03.993Z,55.80
2023-04-09T02:49:32.051Z,57.20
2023-04-09T02:52:01.524Z,58.80
2023-04-09T02:54:29.585Z,58.50
2023-04-09T02:56:57.675Z,59.20
2023-04-09T02:59:25.725Z,60.80
2023-04-09T03:01:53.854Z,61.40
2023-04-09T03:04:22.031Z,62.50
2023-04-09T03:06:51.677Z,63.80
2023-04-09T03:09:21.188Z,64.20
2023-04-09T03:11:49.195Z,64.40
2023-04-09T03:14:17.250Z,64.40
2023-04-09T03:16:45.355Z,63.70
2023-04-09T03:19:13.400Z,64.00
2023-04-09T03:21:41.542Z,62.40
2023-04-09T03:24:09.748Z,62.00
2023-04-09T03:26:39.126Z,61.00
2023-04-09T03:29:07.601Z,59.70
2023-04-09T03:31:35.737Z,57.40
2023-04-09T03:34:03.881Z,58.10
2023-04-09T03:36:32.755Z,58.70
2023-04-09T03:39:01.588Z,59.00
2023-04-09T03:41:29.718Z,58.10
2023-04-09T03:43:59.160Z,58.40
2023-04-09T03:46:27.317Z,58.60
2023-04-09T03:48:55.450Z,58.30
2023-04-09T03:51:23.648Z,59.00
2023-04-09T03:53:51.792Z,57.60
2023-04-09T03:56:19.900Z,55.30
2023-04-09T03:58:48.471Z,56.10
2023-04-09T04:01:17.863Z,56.80
2023-04-09T04:03:46.022Z,59.10
2023-04-09T04:06:14.164Z,59.40
2023-04-09T04:08:42.276Z,60.20
2023-04-09T04:11:10.378Z,60.80
2023-04-09T04:13:38.474Z,61.50
2023-04-09T04:16:09.140Z,64.30
2023-04-09T04:18:38.754Z,64.90
2023-04-09T04:21:07.082Z,65.50
2023-04-09T04:23:35.882Z,65.40
2023-04-09T04:26:09.918Z,64.80
2023-04-09T04:28:38.000Z,64.40
2023-04-09T04:31:10.107Z,65.40
2023-04-09T04:33:40.525Z,65.30
2023-04-09T04:36:10.214Z,65.10
2023-04-09T04:38:38.704Z,64.70
2023-04-09T04:41:07.174Z,64.20
2023-04-09T04:43:35.400Z,65.50
2023-04-09T04:46:03.530Z,64.50
2023-04-09T04:48:32.045Z,64.50
2023-04-09T04:51:03.155Z,64.20
2023-04-09T04:53:31.197Z,61.90
2023-04-09T04:55:59.288Z,62.10
2023-04-09T04:58:27.346Z,60.50
2023-04-09T05:00:55.500Z,58.70
2023-04-09T05:03:24.696Z,56.60
2023-04-09T05:05:55.075Z,58.10
2023-04-09T05:08:24.579Z,56.30
2023-04-09T05:10:55.970Z,55.90
2023-04-09T05:13:24.832Z,57.00
2023-04-09T05:15:53.223Z,57.70
2023-04-09T05:18:21.669Z,58.50
2023-04-09T05:20:49.710Z,60.70
2023-04-09T05:23:17.739Z,58.60
2023-04-09T05:25:49.270Z,57.50
2023-04-09T05:28:17.648Z,57.90
2023-04-09T05:30:48.203Z,58.30
2023-04-09T05:33:16.362Z,57.70
2023-04-09T05:35:44.476Z,59.10
2023-04-09T05:38:13.781Z,59.90
2023-04-09T05:40:42.424Z,60.20
2023-04-09T05:43:11.874Z,60.90
2023-04-09T05:45:39.950Z,61.30
2023-04-09T05:48:08.341Z,61.30
2023-04-09T05:50:51.085Z,60.60
2023-04-09T05:53:22.983Z,60.00
2023-04-09T05:55:51.265Z,60.20
2023-04-09T05:58:21.291Z,61.40
2023-04-09T06:00:51.568Z,59.90
2023-04-09T06:03:19.940Z,58.50
2023-04-09T06:05:48.295Z,58.10
2023-04-09T06:08:16.655Z,57.50
2023-04-09T06:10:44.986Z,57.60
2023-04-09T06:13:13.166Z,58.70
2023-04-09T06:15:42.773Z,55.70
2023-04-09T06:18:10.991Z,52.50
2023-04-09T06:20:39.084Z,50.00
2023-04-09T06:23:07.205Z,49.10
2023-04-09T06:25:36.349Z,48.50
2023-04-09T06:28:04.403Z,49.40
2023-04-09T06:30:32.830Z,51.10
2023-04-09T06:33:02.328Z,51.40
2023-04-09T06:35:31.080Z,50.90
2023-04-09T06:37:59.125Z,50.30
2023-04-09T06:40:27.273Z,50.60
2023-04-09T06:42:55.436Z,48.90
2023-04-09T06:45:23.829Z,49.10
2023-04-09T06:47:52.530Z,49.40
2023-04-09T06:50:22.007Z,45.80
2023-04-09T06:52:50.081Z,46.80
2023-04-09T06:55:22.080Z,44.90
2023-04-09T06:57:53.170Z,43.30
2023-04-09T07:00:23.036Z,42.40
2023-04-09T07:02:51.934Z,40.20
2023-04-09T07:05:21.625Z,40.00
2023-04-09T07:07:49.645Z,35.60
2023-04-09T07:10:17.799Z,35.40
2023-04-09T07:12:45.990Z,33.40
2023-04-09T07:15:14.104Z,33.70
2023-04-09T07:17:42.577Z,32.60
2023-04-09T07:20:11.637Z,32.30
2023-04-09T07:22:41.664Z,31.70
2023-04-09T07:25:10.501Z,31.60
2023-04-09T07:27:38.560Z,29.10
2023-04-09T07:30:07.971Z,29.90
2023-04-09T07:32:36.102Z,28.90
2023-04-09T07:35:05.312Z,28.70
2023-04-09T07:37:33.541Z,26.80
2023-04-09T07:40:03.996Z,26.80
2023-04-09T07:42:32.129Z,28.00
2023-04-09T07:45:00.728Z,26.70
2023-04-09T07:47:28.870Z,26.80
2023-04-09T07:49:56.948Z,23.20
2023-04-09T07:52:25.111Z,23.70
2023-04-09T07:54:53.137Z,23.30
2023-04-09T07:57:22.690Z,20.20
2023-04-09T07:59:50.769Z,24.50
2023-04-09T08:02:18.881Z,21.20
2023-04-09T08:04:47.142Z,20.20
2023-04-09T08:07:15.340Z,22.80
2023-04-09T08:09:43.418Z,22.20
2023-04-09T08:12:11.953Z,20.50
2023-04-09T08:14:41.445Z,22.40
2023-04-09T08:17:09.534Z,22.70
2023-04-09T08:19:39.832Z,22.80
2023-04-09T08:22:09.285Z,21.20
2023-04-09T08:24:38.738Z,16.60
2023-04-09T08:27:06.790Z,17.00
2023-04-09T08:29:35.028Z,17.20
2023-04-09T08:32:04.487Z,17.30
2023-04-09T08:34:32.557Z,18.10
2023-04-09T08:37:00.693Z,14.40
2023-04-09T08:39:28.911Z,14.00
2023-04-09T08:42:01.786Z,13.70
2023-04-09T08:44:30.603Z,14.00
2023-04-09T08:47:00.162Z,13.00
2023-04-09T08:49:29.610Z,13.20
2023-04-09T08:51:57.757Z,12.90
2023-04-09T08:54:26.846Z,12.80
2023-04-09T08:56:56.389Z,13.50
2023-04-09T08:59:24.480Z,13.30
2023-04-09T09:02:08.530Z,13.10
2023-04-09T09:04:47.454Z,13.70
2023-04-09T09:07:16.483Z,14.20
2023-04-09T09:09:55.143Z,14.40
2023-04-09T09:12:38.200Z,14.40
2023-04-09T09:15:08.120Z,15.20
2023-04-09T09:17:55.675Z,14.50
2023-04-09T09:20:26.590Z,13.40
2023-04-09T09:22:56.552Z,12.20
2023-04-09T09:25:26.459Z,14.70
2023-04-09T09:27:55.832Z,15.90
2023-04-09T09:30:25.726Z,15.50
2023-04-09T09:32:55.006Z,14.30
2023-04-09T09:35:24.713Z,13.20
2023-04-09T09:38:04.187Z,9.50
2023-04-09T09:40:32.625Z,9.70
2023-04-09T09:43:00.655Z,8.10
2023-04-09T09:45:30.275Z,9.10
2023-04-09T09:47:58.434Z,9.70
2023-04-09T09:50:31.746Z,10.00
2023-04-09T09:53:04.674Z,9.70
2023-04-09T09:55:34.020Z,10.20
2023-04-09T09:58:04.819Z,9.10
2023-04-09T10:00:34.075Z,10.50
2023-04-09T10:03:13.391Z,10.60
2023-04-09T10:05:43.608Z,10.40
2023-04-09T10:08:12.495Z,9.30
2023-04-09T10:10:43.175Z,9.90
2023-04-09T10:13:16.635Z,7.80
2023-04-09T10:15:46.172Z,8.80
2023-04-09T10:18:14.513Z,8.60
2023-04-09T10:21:03.985Z,8.00
2023-04-09T10:23:38.900Z,8.50
2023-04-09T10:26:07.043Z,7.70
2023-04-09T10:28:35.534Z,8.50
2023-04-09T10:31:06.218Z,10.20
2023-04-09T10:33:36.861Z,8.30
2023-04-09T10:36:10.916Z,7.90
2023-04-09T10:38:40.886Z,6.30
2023-04-09T10:41:16.981Z,8.10
2023-04-09T10:43:47.822Z,8.00
2023-04-09T10:46:29.684Z,7.90
2023-04-09T10:49:16.914Z,7.40
2023-04-09T10:51:53.064Z,7.80
2023-04-09T10:54:43.722Z,8.30
2023-04-09T10:57:16.588Z,7.80
2023-04-09T10:59:46.020Z,7.50
2023-04-09T11:02:50.012Z,7.10
2023-04-09T11:05:27.618Z,7.70
2023-04-09T11:08:04.131Z,8.20
2023-04-09T11:10:32.764Z,7.10
2023-04-09T11:13:01.353Z,6.60
2023-04-09T11:15:30.052Z,5.60
2023-04-09T11:17:58.735Z,6.10
2023-04-09T11:20:27.477Z,6.30
2023-04-09T11:22:57.184Z,5.70
2023-04-09T11:25:27.556Z,4.00
2023-04-09T11:27:56.199Z,5.20
2023-04-09T11:30:24.686Z,6.70
2023-04-09T11:32:52.890Z,5.80
2023-04-09T11:35:22.606Z,5.70
2023-04-09T11:37:52.400Z,4.20
2023-04-09T11:40:23.042Z,5.50
2023-04-09T11:42:52.448Z,6.20
2023-04-09T11:45:22.007Z,6.10
2023-04-09T11:47:50.582Z,5.70
2023-04-09T11:50:19.196Z,5.80
2023-04-09T11:52:47.897Z,6.70
2023-04-09T11:55:26.285Z,6.60
2023-04-09T11:57:57.758Z,5.80
2023-04-09T12:00:26.163Z,5.70
2023-04-09T12:03:02.711Z,5.90
2023-04-09T12:05:32.868Z,4.90
2023-04-09T12:08:02.645Z,6.30
2023-04-09T12:10:33.826Z,5.50
2023-04-09T12:13:07.200Z,5.70
2023-04-09T12:15:36.911Z,6.30
2023-04-09T12:18:08.942Z,3.90
2023-04-09T12:20:39.651Z,3.30
2023-04-09T12:23:09.050Z,4.20
2023-04-09T12:25:39.971Z,4.80
2023-04-09T12:28:09.981Z,3.60
2023-04-09T12:30:38.075Z,2.60
2023-04-09T12:33:08.268Z,4.10
2023-04-09T12:35:38.096Z,4.30
2023-04-09T12:38:06.648Z,2.90
2023-04-09T12:40:34.894Z,3.20
2023-04-09T12:43:04.464Z,4.90
2023-04-09T12:45:32.934Z,4.00
2023-04-09T12:48:01.003Z,3.80
2023-04-09T12:50:29.400Z,4.30
2023-04-09T12:52:57.522Z,2.90
2023-04-09T12:55:25.600Z,3.00
2023-04-09T12:57:53.658Z,2.00
2023-04-09T13:00:23.166Z,3.60
2023-04-09T13:02:52.737Z,4.60
2023-04-09T13:05:21.133Z,3.40
2023-04-09T13:07:49.163Z,3.80
2023-04-09T13:10:17.308Z,1.00
2023-04-09T13:12:45.400Z,1.50
2023-04-09T13:15:13.511Z,1.00
2023-04-09T13:17:43.087Z,2.60
2023-04-09T13:20:11.514Z,1.10
2023-04-09T13:22:39.821Z,1.00
2023-04-09T13:25:08.273Z,1.00
2023-04-09T13:27:36.313Z,1.00
2023-04-09T13:30:04.683Z,1.00
2023-04-09T13:32:32.825Z,1.00
2023-04-09T13:35:02.278Z,1.00
2023-04-09T13:37:30.469Z,1.00
2023-04-09T13:39:58.616Z,1.00
2023-04-09T13:42:27.784Z,1.00
2023-04-09T13:44:57.478Z,1.00
2023-04-09T13:47:25.707Z,1.00
2023-04-09T13:49:53.874Z,1.00
2023-04-09T13:52:24.635Z,1.00
2023-04-09T13:54:54.358Z,1.00
2023-04-09T13:57:22.436Z,1.00
2023-04-09T13:59:50.744Z,1.00
2023-04-09T14:09:46.421Z,1.00
2023-04-09T14:12:14.823Z,1.00
2023-04-09T14:14:42.883Z,1.00
2023-04-09T18:08:04.345Z,1.00
2023-04-09T18:10:32.474Z,1.00
2023-04-09T18:13:01.927Z,1.00
2023-04-09T18:15:29.975Z,1.00
2023-04-09T18:18:00.073Z,1.00
2023-04-09T18:20:28.236Z,1.00
2023-04-09T18:22:56.608Z,1.00
2023-04-09T18:25:24.789Z,1.00
2023-04-09T18:27:53.075Z,1.00
2023-04-09T18:30:22.592Z,1.00
2023-04-09T18:32:51.748Z,1.00
2023-04-09T18:35:20.078Z,2.40
2023-04-09T18:37:48.168Z,3.30
2023-04-09T18:40:19.207Z,4.40
2023-04-09T18:42:51.756Z,5.90
2023-04-09T18:45:20.152Z,6.50
2023-04-09T18:47:49.731Z,7.40
2023-04-09T18:50:18.843Z,7.40
2023-04-09T18:52:47.259Z,8.10
2023-04-09T18:55:16.337Z,8.40
2023-04-09T18:57:44.811Z,8.60
2023-04-09T19:00:13.720Z,7.30
2023-04-09T19:02:42.816Z,6.70
2023-04-09T19:05:18.277Z,6.10
2023-04-09T19:07:47.061Z,6.20
2023-04-09T19:10:15.192Z,6.00
2023-04-09T19:12:51.012Z,6.40
2023-04-09T19:15:19.041Z,6.30
2023-04-09T19:17:47.249Z,6.40
2023-04-09T19:20:17.236Z,7.00
2023-04-09T19:22:47.895Z,7.30
2023-04-09T19:25:16.407Z,7.90
2023-04-09T19:27:44.593Z,8.10
2023-04-09T19:30:13.453Z,8.20
2023-04-09T19:32:42.294Z,8.80
2023-04-09T19:35:10.706Z,8.70
2023-04-09T19:37:40.483Z,9.50
2023-04-09T19:40:09.883Z,9.70
2023-04-09T19:42:37.979Z,10.30
2023-04-09T19:45:06.908Z,10.60
2023-04-09T19:47:35.645Z,10.70
2023-04-09T19:50:03.844Z,14.60
2023-04-09T19:52:31.913Z,15.30
2023-04-09T19:55:01.944Z,16.20
2023-04-09T19:57:31.886Z,19.40
2023-04-09T20:00:00.030Z,21.90
2023-04-09T20:02:28.302Z,20.50
2023-04-09T20:04:56.501Z,21.20
2023-04-09T20:07:24.549Z,21.60
2023-04-09T20:09:52.669Z,21.80
2023-04-09T20:12:23.769Z,22.30
2023-04-09T20:14:51.815Z,21.20
2023-04-09T20:17:21.152Z,21.50
2023-04-09T20:19:49.661Z,21.30
2023-04-09T20:22:17.858Z,20.50
2023-04-09T20:24:45.967Z,20.90
2023-04-09T20:27:14.083Z,20.30
2023-04-09T20:29:43.537Z,20.90
2023-04-09T20:32:11.975Z,21.30
2023-04-09T20:34:40.432Z,21.00
2023-04-09T20:37:08.475Z,21.10
2023-04-09T20:39:36.717Z,21.80
2023-04-09T20:42:04.885Z,20.90
2023-04-09T20:44:32.982Z,20.80
2023-04-09T20:47:02.441Z,21.10
2023-04-09T20:49:30.609Z,21.90
2023-04-09T20:51:58.630Z,20.90
2023-04-09T20:54:27.561Z,21.10
2023-04-09T20:56:55.935Z,21.50
2023-04-09T20:59:24.903Z,21.70
2023-04-09T21:01:54.088Z,20.70
2023-04-09T21:04:24.115Z,20.90
2023-04-09T21:06:52.369Z,22.50
2023-04-09T21:09:20.445Z,30.20
2023-04-09T21:11:48.496Z,30.70
2023-04-09T21:14:16.661Z,29.50
2023-04-09T21:16:44.769Z,28.40
2023-04-09T21:19:12.880Z,29.70
2023-04-09T21:21:42.348Z,31.80
2023-04-09T21:24:10.495Z,30.60
2023-04-09T21:26:49.922Z,29.50
2023-04-09T21:29:20.004Z,30.00
2023-04-09T21:31:48.521Z,29.90
2023-04-09T21:34:16.651Z,29.70
2023-04-09T21:36:46.314Z,30.20
2023-04-09T21:39:14.443Z,30.30
2023-04-09T21:41:42.568Z,30.50
2023-04-09T21:44:10.800Z,30.30
2023-04-09T21:46:40.585Z,30.40
2023-04-09T21:49:08.989Z,30.00
2023-04-09T21:51:37.599Z,33.10
2023-04-09T21:54:07.976Z,48.50
2023-04-09T21:56:37.115Z,32.60
2023-04-09T21:59:05.687Z,30.30
2023-04-09T22:01:35.129Z,30.40
2023-04-09T22:04:03.838Z,30.50
2023-04-09T22:06:32.401Z,29.80
2023-04-09T22:09:00.823Z,29.70
2023-04-09T22:11:30.485Z,29.50
2023-04-09T22:13:58.851Z,30.10
2023-04-09T22:16:27.483Z,29.10
2023-04-09T22:18:56.248Z,28.20
2023-04-09T22:21:24.880Z,27.20
2023-04-09T22:23:52.956Z,27.70
2023-04-09T22:26:21.582Z,27.50
2023-04-09T22:28:51.546Z,27.30
2023-04-09T22:31:19.969Z,28.10
2023-04-09T22:33:48.116Z,29.10
2023-04-09T22:36:16.324Z,29.50
2023-04-09T22:38:44.423Z,29.60
2023-04-09T22:41:12.525Z,29.10
2023-04-09T22:43:40.659Z,28.80
2023-04-09T22:46:10.189Z,28.90
2023-04-09T22:48:44.184Z,27.70
2023-04-09T22:51:13.668Z,28.70
2023-04-09T22:53:41.752Z,29.90
2023-04-09T22:56:10.411Z,30.50
2023-04-09T22:58:38.931Z,31.00
2023-04-09T23:01:07.723Z,31.50
2023-04-09T23:03:37.313Z,31.40
2023-04-09T23:06:05.701Z,31.20
2023-04-09T23:08:33.811Z,31.20
2023-04-09T23:11:01.891Z,29.40
2023-04-09T23:13:30.147Z,29.40
2023-04-09T23:15:58.281Z,29.70
2023-04-09T23:18:26.468Z,30.70
2023-04-09T23:20:55.900Z,31.50
2023-04-09T23:23:23.982Z,32.90
2023-04-09T23:25:52.563Z,31.10
2023-04-09T23:28:20.666Z,31.60
2023-04-09T23:30:48.747Z,33.10
2023-04-09T23:33:16.909Z,32.50
2023-04-09T23:35:45.011Z,33.70
2023-04-09T23:38:15.144Z,34.60
2023-04-09T23:40:43.847Z,34.90
2023-04-09T23:43:12.033Z,35.60
2023-04-09T23:45:40.098Z,35.50
2023-04-09T23:48:57.380Z,36.40
2023-04-09T23:51:43.357Z,35.90
2023-04-09T23:54:35.423Z,36.60
2023-04-09T23:57:39.035Z,35.30
